createdAt,value
2018-04-22T00:03:06.238Z,11.33
2018-04-22T00:08:07.970Z,11.63
2018-04-22T00:13:08.993Z,11.70
2018-04-22T00:18:09.986Z,12.40
2018-04-22T00:23:10.981Z,11.70
2018-04-22T00:28:12.733Z,10.77
2018-04-22T00:33:13.773Z,12.20
2018-04-22T00:38:14.774Z,11.37
2018-04-22T00:43:16.529Z,12.23
2018-04-22T00:48:17.554Z,11.80
2018-04-22T00:53:18.565Z,12.20
2018-04-22T00:58:20.321Z,11.70
2018-04-22T01:03:21.329Z,12.60
2018-04-22T01:08:22.341Z,13.10
2018-04-22T01:13:24.093Z,12.90
2018-04-22T01:18:25.117Z,11.40
2018-04-22T01:23:26.122Z,11.80
2018-04-22T01:28:27.142Z,12.40
2018-04-22T01:33:28.144Z,12.20
2018-04-22T01:38:29.143Z,12.63
2018-04-22T01:43:30.165Z,12.40
2018-04-22T01:48:31.922Z,11.77
2018-04-22T01:53:32.922Z,11.67
2018-04-22T01:58:34.673Z,12.07
2018-04-22T02:03:35.653Z,12.37
2018-04-22T02:08:36.681Z,12.97
2018-04-22T02:13:37.683Z,12.77
2018-04-22T02:18:38.697Z,13.37
2018-04-22T02:23:39.709Z,14.33
2018-04-22T02:28:40.701Z,13.40
2018-04-22T02:33:41.718Z,13.30
2018-04-22T02:38:43.034Z,12.77
2018-04-22T02:43:44.045Z,13.57
2018-04-22T02:48:52.076Z,13.30
2018-04-22T02:53:53.072Z,12.73
2018-04-22T02:58:54.057Z,12.70
2018-04-22T03:03:55.065Z,12.93
2018-04-22T03:08:56.056Z,12.10
2018-04-22T03:13:57.813Z,11.97
2018-04-22T03:18:58.825Z,12.60
2018-04-22T03:23:59.808Z,13.13
2018-04-22T03:29:00.786Z,11.47
2018-04-22T03:34:01.791Z,11.97
2018-04-22T03:39:02.797Z,11.60
2018-04-22T03:44:03.982Z,12.60
2018-04-22T03:49:04.977Z,11.07
2018-04-22T03:54:05.974Z,11.57
2018-04-22T03:59:06.968Z,11.00
2018-04-22T04:04:08.703Z,11.40
2018-04-22T04:09:09.709Z,10.63
2018-04-22T04:14:10.698Z,12.53
2018-04-22T04:19:24.875Z,11.43
2018-04-22T04:24:38.382Z,11.60
2018-04-22T04:29:40.111Z,12.07
2018-04-22T04:34:41.110Z,12.73
2018-04-22T04:39:42.098Z,11.27
2018-04-22T04:44:43.107Z,12.13
2018-04-22T04:49:44.859Z,12.37
2018-04-22T04:54:45.881Z,12.50
2018-04-22T04:59:46.875Z,12.50
2018-04-22T05:04:47.866Z,11.57
2018-04-22T05:09:49.635Z,11.93
2018-04-22T05:14:51.563Z,12.50
2018-04-22T05:19:52.569Z,11.83
2018-04-22T05:24:53.565Z,12.77
2018-04-22T05:29:54.597Z,12.50
2018-04-22T05:34:56.329Z,13.90
2018-04-22T05:39:57.334Z,13.33
2018-04-22T05:44:58.337Z,13.30
2018-04-22T05:49:59.350Z,13.67
2018-04-22T05:55:00.370Z,13.57
2018-04-22T06:00:01.347Z,13.80
2018-04-22T06:05:03.111Z,13.00
2018-04-22T06:10:04.102Z,13.40
2018-04-22T06:15:05.107Z,12.67
2018-04-22T06:20:06.102Z,12.83
2018-04-22T06:25:07.850Z,13.17
2018-04-22T06:30:08.854Z,13.27
2018-04-22T06:35:09.856Z,12.53
2018-04-22T06:40:10.887Z,12.70
2018-04-22T06:45:11.865Z,14.23
2018-04-22T06:50:12.845Z,12.97
2018-04-22T06:55:13.836Z,12.70
2018-04-22T07:00:15.582Z,12.50
2018-04-22T07:05:16.606Z,12.50
2018-04-22T07:10:17.586Z,11.87
2018-04-22T07:15:18.593Z,12.17
2018-04-22T07:20:20.310Z,12.90
2018-04-22T07:25:21.316Z,13.47
2018-04-22T07:30:23.042Z,12.60
2018-04-22T07:35:24.047Z,12.97
2018-04-22T07:40:25.770Z,12.43
2018-04-22T07:45:26.785Z,12.23
2018-04-22T07:50:28.522Z,13.17
2018-04-22T07:55:29.502Z,12.17
2018-04-22T08:00:31.235Z,12.50
2018-04-22T08:05:32.222Z,12.63
2018-04-22T08:10:33.207Z,14.40
2018-04-22T08:15:34.941Z,13.13
2018-04-22T08:20:35.927Z,13.80
2018-04-22T08:25:37.653Z,14.70
2018-04-22T08:30:38.645Z,13.47
2018-04-22T08:35:39.630Z,15.30
2018-04-22T08:40:40.609Z,14.17
2018-04-22T08:45:41.590Z,14.77
2018-04-22T08:50:42.636Z,15.57
2018-04-22T08:55:43.550Z,15.30
2018-04-22T09:00:45.273Z,15.60
2018-04-22T09:05:46.251Z,14.77
2018-04-22T09:10:47.273Z,13.60
2018-04-22T09:15:48.237Z,14.40
2018-04-22T09:20:49.225Z,13.83
2018-04-22T09:25:50.213Z,13.13
2018-04-22T09:30:51.934Z,13.13
2018-04-22T09:35:53.144Z,13.07
2018-04-22T09:40:54.153Z,12.80
2018-04-22T09:45:55.187Z,11.23
2018-04-22T09:50:56.175Z,11.23
2018-04-22T09:55:57.194Z,11.10
2018-04-22T10:00:59.951Z,10.97
2018-04-22T10:06:00.945Z,11.73
2018-04-22T10:11:01.974Z,11.20
2018-04-22T10:16:02.984Z,9.87
2018-04-22T10:21:03.997Z,12.40
2018-04-22T10:26:05.003Z,11.90
2018-04-22T10:31:06.078Z,12.73
2018-04-22T10:36:07.070Z,12.63
2018-04-22T10:41:08.085Z,10.87
2018-04-22T10:46:09.087Z,11.10
2018-04-22T10:51:10.073Z,12.00
2018-04-22T10:56:11.277Z,12.17
2018-04-22T11:01:12.345Z,11.33
2018-04-22T11:06:13.321Z,11.03
2018-04-22T11:11:14.314Z,10.03
2018-04-22T11:16:15.314Z,9.40
2018-04-22T11:21:16.293Z,8.40
2018-04-22T11:26:18.048Z,7.73
2018-04-22T11:31:19.048Z,7.43
2018-04-22T11:36:20.019Z,7.73
2018-04-22T11:41:20.996Z,8.40
2018-04-22T11:46:21.982Z,7.87
2018-04-22T11:51:22.958Z,7.60
2018-04-22T11:56:24.706Z,7.07
2018-04-22T12:01:25.707Z,7.83
2018-04-22T12:06:26.880Z,6.73
2018-04-22T12:11:28.590Z,7.43
2018-04-22T12:16:29.564Z,7.20
2018-04-22T12:21:30.563Z,6.47
2018-04-22T12:26:31.531Z,7.10
2018-04-22T12:31:32.509Z,6.10
2018-04-22T12:36:33.485Z,6.40
2018-04-22T12:41:34.474Z,6.73
2018-04-22T12:46:36.186Z,6.20
2018-04-22T12:51:37.170Z,5.70
2018-04-22T12:56:38.141Z,6.20
2018-04-22T13:01:39.129Z,5.60
2018-04-22T13:06:40.889Z,4.83
2018-04-22T13:11:42.645Z,5.10
2018-04-22T13:16:43.714Z,4.97
2018-04-22T13:21:44.685Z,4.67
2018-04-22T13:26:46.433Z,5.70
2018-04-22T13:31:47.458Z,4.70
2018-04-22T13:36:48.572Z,4.97
2018-04-22T13:41:50.302Z,5.23
2018-04-22T13:46:51.282Z,4.97
2018-04-22T13:51:53.509Z,4.60
2018-04-22T13:57:01.542Z,4.57
2018-04-22T14:02:02.528Z,5.27
2018-04-22T14:07:03.533Z,4.33
2018-04-22T14:12:04.517Z,3.97
2018-04-22T14:17:05.495Z,4.00
2018-04-22T14:22:06.482Z,3.73
2018-04-22T14:27:07.473Z,4.10
2018-04-22T14:32:09.199Z,4.60
2018-04-22T14:37:10.198Z,4.30
2018-04-22T14:42:11.281Z,4.93
2018-04-22T14:47:12.270Z,3.97
2018-04-22T14:52:13.335Z,4.10
2018-04-22T14:57:14.306Z,3.90
2018-04-22T15:02:15.287Z,4.10
2018-04-22T15:07:16.777Z,4.13
2018-04-22T15:12:17.821Z,4.13
2018-04-22T15:17:19.613Z,4.00
2018-04-22T15:22:20.610Z,4.43
2018-04-22T15:27:21.594Z,3.63
2018-04-22T15:32:22.587Z,4.27
2018-04-22T15:37:23.569Z,4.20
2018-04-22T15:42:24.569Z,3.87
2018-04-22T15:47:26.310Z,3.60
2018-04-22T15:52:27.310Z,3.63
2018-04-22T15:57:29.067Z,3.30
2018-04-22T16:02:30.068Z,3.30
2018-04-22T16:07:31.061Z,3.53
2018-04-22T16:12:32.071Z,3.53
2018-04-22T16:17:33.078Z,3.27
2018-04-22T16:22:34.081Z,3.57
2018-04-22T16:27:35.829Z,3.33
2018-04-22T16:32:36.821Z,3.40
2018-04-22T16:37:38.541Z,3.30
2018-04-22T16:42:39.542Z,2.83
2018-04-22T16:47:41.383Z,3.00
2018-04-22T16:52:42.398Z,3.40
2018-04-22T16:57:43.437Z,3.00
2018-04-22T17:02:44.422Z,2.87
2018-04-22T17:07:46.146Z,3.20
2018-04-22T17:12:48.068Z,3.17
2018-04-22T17:17:49.076Z,3.00
2018-04-22T17:22:50.067Z,3.13
2018-04-22T17:27:51.049Z,2.43
2018-04-22T17:32:52.762Z,2.87
2018-04-22T17:37:53.742Z,2.97
2018-04-22T17:42:54.747Z,2.83
2018-04-22T17:47:56.478Z,2.67
2018-04-22T17:52:57.474Z,2.50
2018-04-22T17:57:59.201Z,2.70
2018-04-22T18:03:00.201Z,2.80
2018-04-22T18:08:01.942Z,5.50
2018-04-22T18:13:02.981Z,2.80
2018-04-22T18:18:03.977Z,2.63
2018-04-22T18:23:04.982Z,3.40
2018-04-22T18:28:05.970Z,3.23
2018-04-22T18:33:06.993Z,3.00
2018-04-22T18:38:08.701Z,3.40
2018-04-22T18:43:09.697Z,2.80
2018-04-22T18:48:11.418Z,2.93
2018-04-22T18:53:12.411Z,3.20
2018-04-22T18:58:13.397Z,3.17
2018-04-22T19:03:14.382Z,3.10
2018-04-22T19:08:15.355Z,2.80
2018-04-22T19:13:16.348Z,2.83
2018-04-22T19:18:18.081Z,2.97
2018-04-22T19:23:19.057Z,3.00
2018-04-22T19:28:20.870Z,4.13
2018-04-22T19:33:22.585Z,4.10
2018-04-22T19:38:23.566Z,3.23
2018-04-22T19:43:24.556Z,3.17
2018-04-22T19:48:25.564Z,3.40
2018-04-22T19:53:26.565Z,3.30
2018-04-22T19:58:28.286Z,3.13
2018-04-22T20:03:29.321Z,3.20
2018-04-22T20:08:30.256Z,3.03
2018-04-22T20:13:31.970Z,3.13
2018-04-22T20:18:32.956Z,3.50
2018-04-22T20:23:33.945Z,3.07
2018-04-22T20:28:35.662Z,2.77
2018-04-22T20:33:36.662Z,3.40
2018-04-22T20:38:37.613Z,2.67
2018-04-22T20:43:38.613Z,3.27
2018-04-22T20:48:39.598Z,3.23
2018-04-22T20:53:40.584Z,3.17
2018-04-22T20:58:41.605Z,3.23
2018-04-22T21:03:42.602Z,3.50
2018-04-22T21:08:43.612Z,3.27
2018-04-22T21:13:45.290Z,3.30
2018-04-22T21:18:46.287Z,2.80
2018-04-22T21:23:47.277Z,3.13
2018-04-22T21:28:49.002Z,2.90
2018-04-22T21:33:50.032Z,2.90
2018-04-22T21:38:51.721Z,2.77
2018-04-22T21:43:52.739Z,3.10
2018-04-22T21:48:53.746Z,3.20
2018-04-22T21:53:54.741Z,2.87
2018-04-22T21:58:55.737Z,2.80
2018-04-22T22:03:56.717Z,3.57
2018-04-22T22:08:57.717Z,3.00
2018-04-22T22:13:59.486Z,3.10
2018-04-22T22:19:01.289Z,3.07
2018-04-22T22:24:02.288Z,2.90
2018-04-22T22:29:03.282Z,3.60
2018-04-22T22:34:05.018Z,3.50
2018-04-22T22:39:06.016Z,3.00
2018-04-22T22:44:07.769Z,3.53
2018-04-22T22:49:08.766Z,3.33
2018-04-22T22:54:09.753Z,3.20
2018-04-22T22:59:10.751Z,3.10
2018-04-22T23:04:11.729Z,2.97
2018-04-22T23:09:13.455Z,3.80
2018-04-22T23:14:14.431Z,3.40
2018-04-22T23:19:15.426Z,3.30
2018-04-22T23:24:16.407Z,3.30
2018-04-22T23:29:17.389Z,2.97
2018-04-22T23:34:18.360Z,2.60
2018-04-22T23:39:19.345Z,3.10
2018-04-22T23:44:20.332Z,3.67
2018-04-22T23:49:21.315Z,3.60
2018-04-22T23:54:22.294Z,3.77
2018-04-22T23:59:23.283Z,3.63
